Time;durP1;ratioP1;P1;durP2;ratioP2;P2;SDS_P1;SDS_P2;PMS_P1;PMS_P2;Temp;Humidity;BMP_temperature;BMP_pressure;BME280_temperature;BME280_humidity;BME280_pressure;Samples;Min_cycle;Max_cycle;Signal;HPM_P1;HPM_P2
2023/10/07 00:38:42;;;;;;;8.83;5.40;;;;;;;4.65;100.00;96625.50;7315369;19;20491;31
2023/10/07 02:02:30;;;;;;;12.07;5.67;;;;;;;3.80;100.00;96613.03;7401550;19;20368;-90
2023/10/07 02:06:51;;;;;;;9.03;5.83;;;;;;;4.07;100.00;96622.97;7395683;19;20379;-90
2023/10/07 02:09:12;;;;;;;7.43;5.93;;;;;;;1.66;100.00;96266.69;7394401;19;20449;-90
2023/10/07 02:19:14;;;;;;;9.77;5.30;;;;;;;2.24;100.00;96316.34;7396617;19;20391;-90
2023/10/07 02:41:46;;;;;;;14.27;7.73;;;;;;;3.96;100.00;96631.19;7396683;19;20408;-91
2023/10/07 02:44:47;;;;;;;9.27;6.67;;;;;;;1.68;100.00;96256.78;7396330;19;21245;-90
2023/10/07 02:51:57;;;;;;;10.50;7.87;;;;;;;3.47;100.00;96519.72;7394970;19;20393;-90
2023/10/07 02:54:34;;;;;;;10.20;7.63;;;;;;;1.50;100.00;96252.22;7393581;19;20384;-91
2023/10/07 02:59:50;;;;;;;11.93;7.07;;;;;;;3.86;100.00;96608.53;7426562;19;20432;-96
2023/10/07 03:02:47;;;;;;;11.60;8.20;;;;;;;3.83;100.00;96611.69;7425155;19;20388;-96
2023/10/07 03:05:29;;;;;;;13.10;8.03;;;;;;;2.31;100.00;96392.47;7433894;19;20392;-94
2023/10/07 03:08:17;;;;;;;12.47;7.70;;;;;;;2.97;100.00;96485.94;7434198;19;20455;-95
2023/10/07 03:11:12;;;;;;;12.03;8.07;;;;;;;3.95;100.00;96629.66;7436447;19;20394;-95
2023/10/07 03:13:49;;;;;;;13.20;8.13;;;;;;;2.44;100.00;96387.69;7432501;19;20393;-96
2023/10/07 03:24:48;;;;;;;11.90;6.10;;;;;;;3.96;100.00;96620.75;7434032;19;20420;-95
2023/10/07 03:31:59;;;;;;;9.40;5.77;;;;;;;3.61;100.00;96580.03;7432686;19;20428;-96
2023/10/07 03:41:52;;;;;;;9.80;6.37;;;;;;;1.94;100.00;96394.75;7434559;19;20399;-95
2023/10/07 03:44:32;;;;;;;9.63;6.83;;;;;;;3.54;100.00;96617.69;7434184;19;20400;-95
2023/10/07 03:47:10;;;;;;;10.73;6.97;;;;;;;2.81;100.00;96507.22;7433501;19;20429;-95
2023/10/07 03:49:58;;;;;;;15.67;8.50;;;;;;;3.05;100.00;96542.00;7434070;19;20400;-95
2023/10/07 03:52:48;;;;;;;13.97;9.70;;;;;;;2.63;100.00;96495.56;7432427;19;20389;-95
2023/10/07 03:55:29;;;;;;;15.00;9.50;;;;;;;2.34;100.00;96453.75;7432549;19;20392;-96
2023/10/07 03:58:06;;;;;;;16.60;10.90;;;;;;;3.63;100.00;96646.66;7431932;19;20436;-96
2023/10/07 04:01:11;;;;;;;18.47;10.00;;;;;;;3.47;100.00;96637.34;7433372;19;20393;-96
2023/10/07 04:03:51;;;;;;;10.00;7.13;;;;;;;3.71;100.00;96638.22;7432604;19;20397;-95
2023/10/07 04:06:34;;;;;;;18.57;12.10;;;;;;;2.81;100.00;96502.00;7434342;19;20405;-96
2023/10/07 04:09:32;;;;;;;12.03;8.20;;;;;;;2.44;100.00;96461.50;7435401;19;20436;-96
2023/10/07 04:12:11;;;;;;;9.23;6.43;;;;;;;2.85;100.00;96571.66;7432581;19;20388;-95
2023/10/07 04:15:00;;;;;;;8.87;7.77;;;;;;;3.02;100.00;96613.09;7431347;19;20403;-96
2023/10/07 04:17:35;;;;;;;7.33;6.43;;;;;;;3.22;100.00;96612.19;7432396;19;20432;-95
2023/10/07 04:23:28;;;;;;;10.23;7.50;;;;;;;1.77;100.00;96389.91;7431975;19;20396;-96
2023/10/07 04:26:19;;;;;;;8.57;5.97;;;;;;;3.29;100.00;96607.44;7431124;19;20381;-95
2023/10/07 04:28:53;;;;;;;10.27;6.07;;;;;;;3.24;100.00;96597.03;7433016;19;20388;-95
2023/10/07 04:31:37;;;;;;;6.83;5.90;;;;;;;2.86;100.00;96601.94;7432634;19;20389;-96
2023/10/07 04:34:14;;;;;;;9.50;5.37;;;;;;;3.16;100.00;96592.38;7432003;19;20399;-96
2023/10/07 04:42:59;;;;;;;10.00;6.40;;;;;;;2.57;100.00;96523.53;7432017;19;20400;-94
2023/10/07 04:45:53;;;;;;;10.70;6.20;;;;;;;3.05;100.00;96606.53;7430918;19;20400;-96
2023/10/07 04:48:48;;;;;;;11.20;6.37;;;;;;;2.10;100.00;96443.16;7430697;19;20399;-96
2023/10/07 04:55:16;;;;;;;10.30;6.63;;;;;;;2.26;100.00;96483.75;7428885;19;20389;-95
2023/10/07 05:02:26;;;;;;;9.43;6.70;;;;;;;1.88;100.00;96453.19;7421623;19;20427;-91
2023/10/07 05:05:35;;;;;;;12.13;7.03;;;;;;;0.56;100.00;96251.28;7428259;19;20393;-91
2023/10/07 05:09:09;;;;;;;11.57;7.03;;;;;;;3.04;100.00;96604.97;7427909;19;20430;-91
2023/10/07 05:12:55;;;;;;;13.40;7.07;;;;;;;3.27;100.00;96586.00;7424436;19;20381;-91
2023/10/07 05:16:22;;;;;;;13.33;6.60;;;;;;;1.05;100.00;96240.97;7392917;19;20381;-90
2023/10/07 05:19:19;;;;;;;12.47;7.33;;;;;;;1.58;100.00;96310.75;7393735;19;20886;-91
2023/10/07 05:23:14;;;;;;;12.27;8.87;;;;;;;3.61;100.00;96586.03;7396356;19;20915;-91
2023/10/07 05:26:30;;;;;;;12.50;7.90;;;;;;;3.83;100.00;96593.38;7393379;19;20747;-91
2023/10/07 05:51:45;;;;;;;;;;;;;;;;;;;;;
2023/10/07 06:28:51;;;;;;;11.03;7.97;;;;;;;2.26;100.00;96322.06;7422170;19;20435;-90
2023/10/07 06:47:40;;;;;;;;;;;;;;;;;;;;;
2023/10/07 08:32:52;;;;;;;12.20;6.33;;;;;;;7.61;100.00;96510.56;7403730;19;20388;-90
2023/10/07 08:50:14;;;;;;;22.50;17.73;;;;;;;9.23;100.00;96571.13;6686091;19;15069698;-96
2023/10/07 08:53:03;;;;;;;18.77;13.33;;;;;;;9.46;100.00;96596.25;7466182;19;20135;-96
2023/10/07 08:55:35;;;;;;;15.43;12.23;;;;;;;10.32;100.00;96708.19;7464915;19;20405;-95
2023/10/07 09:07:20;;;;;;;16.90;6.60;;;;;;;8.21;100.00;96338.84;7433281;19;20376;-90
2023/10/07 11:49:29;;;;;;;13.93;7.00;;;;;;;11.12;100.00;96345.81;7395382;19;20441;-92
2023/10/07 11:53:25;;;;;;;10.40;5.53;;;;;;;12.30;100.00;96531.22;7398758;19;20728;-92
2023/10/07 11:57:04;;;;;;;;;;;;;;;;;;;;;
2023/10/07 12:36:26;;;;;;;12.43;6.93;;;;;;;12.23;100.00;96416.25;7422962;19;20372;-92
2023/10/07 12:40:05;;;;;;;17.73;12.20;;;;;;;13.54;100.00;96594.38;7407232;19;20373;-92
2023/10/07 12:42:59;;;;;;;21.10;13.80;;;;;;;11.73;100.00;96314.81;7398763;19;20407;-92
2023/10/07 12:45:58;;;;;;;;;;;;;;;;;;;;;
2023/10/07 17:26:13;;;;;;;8.83;6.13;;;;;;;12.84;100.00;96617.75;7434474;19;20411;-95
2023/10/07 17:29:30;;;;;;;11.43;5.67;;;;;;;12.14;100.00;96496.63;7434148;19;20392;-95
2023/10/07 17:56:43;;;;;;;8.50;4.37;;;;;;;12.17;100.00;96534.22;7427961;19;20447;-95
2023/10/07 17:59:52;;;;;;;6.53;4.50;;;;;;;12.59;100.00;96604.50;7431749;19;20393;-95
2023/10/07 18:02:57;;;;;;;5.60;4.30;;;;;;;12.53;100.00;96605.03;7433488;19;20409;-94
2023/10/07 18:05:45;;;;;;;6.50;5.50;;;;;;;12.67;100.00;96630.13;7433406;19;20377;-95
2023/10/07 18:08:50;;;;;;;7.60;5.20;;;;;;;12.14;100.00;96615.16;7432089;19;20396;-94
2023/10/07 18:12:14;;;;;;;4.60;4.20;;;;;;;10.95;100.00;96411.03;7430454;19;20413;-95
2023/10/07 18:15:20;;;;;;;8.80;5.27;;;;;;;11.99;100.00;96566.19;7430624;19;20396;-95
2023/10/07 18:18:04;;;;;;;7.80;5.03;;;;;;;12.35;100.00;96618.50;7431792;19;20432;-95
2023/10/07 18:20:53;;;;;;;10.90;5.63;;;;;;;12.12;100.00;96612.81;7433066;19;20455;-95
2023/10/07 18:23:56;;;;;;;6.47;5.03;;;;;;;12.04;100.00;96621.66;7432236;19;20381;-95
2023/10/07 18:27:16;;;;;;;5.93;4.37;;;;;;;11.54;100.00;96494.69;7431464;19;20424;-95
2023/10/07 18:30:14;;;;;;;7.60;5.53;;;;;;;12.26;100.00;96611.75;7432745;19;20376;-95
2023/10/07 18:33:11;;;;;;;7.13;4.90;;;;;;;11.11;100.00;96405.91;7431684;19;20397;-95
2023/10/07 18:36:09;;;;;;;6.90;5.13;;;;;;;12.52;100.00;96603.47;7433276;19;20385;-94
2023/10/07 18:38:57;;;;;;;6.83;4.70;;;;;;;11.39;100.00;96442.34;7428035;19;20393;-94
2023/10/07 18:42:09;;;;;;;13.00;6.30;;;;;;;12.04;100.00;96562.59;7430638;19;20408;-94
2023/10/07 18:44:54;;;;;;;5.90;5.13;;;;;;;11.65;100.00;96489.75;7431299;19;20401;-93
2023/10/07 18:48:25;;;;;;;9.60;5.07;;;;;;;11.44;100.00;96445.56;7429586;19;20432;-94
2023/10/07 18:51:39;;;;;;;7.00;5.60;;;;;;;12.49;100.00;96591.66;7431934;19;20392;-94
2023/10/07 18:54:20;;;;;;;7.03;5.30;;;;;;;12.49;100.00;96601.50;7431745;19;20393;-94
2023/10/07 19:56:33;;;;;;;9.50;6.73;;;;;;;10.94;100.00;96559.50;7427316;19;20396;-94
2023/10/07 19:59:38;;;;;;;;;;;;;;;;;;;;;
2023/10/07 20:03:02;;;;;;;10.67;6.00;;;;;;;9.68;100.00;96393.88;7431814;19;20415;-94
2023/10/07 20:43:59;;;;;;;7.47;5.60;;;;;;;10.11;100.00;96507.22;7417700;19;20444;-95
2023/10/07 20:46:26;;;;;;;7.60;6.47;;;;;;;10.05;100.00;96511.16;7427932;19;20435;-93
2023/10/07 20:48:53;;;;;;;7.00;5.70;;;;;;;10.00;100.00;96514.72;7423306;19;20393;-94
2023/10/07 20:51:21;;;;;;;10.03;5.70;;;;;;;10.36;100.00;96566.38;7428796;19;20413;-94
2023/10/07 20:53:59;;;;;;;8.00;5.70;;;;;;;9.85;100.00;96472.25;7426948;19;20420;-94
2023/10/07 21:08:51;;;;;;;8.80;5.60;;;;;;;10.05;100.00;96487.38;7393494;19;20444;-93
2023/10/07 21:11:23;;;;;;;7.47;6.03;;;;;;;10.01;100.00;96476.66;7426641;19;20398;-93
2023/10/07 21:13:53;;;;;;;6.37;5.57;;;;;;;10.21;100.00;96528.06;7428641;19;20381;-93
2023/10/07 21:16:21;;;;;;;9.47;6.33;;;;;;;9.85;100.00;96470.38;7428792;19;20373;-94
2023/10/07 21:18:48;;;;;;;10.53;6.33;;;;;;;9.98;100.00;96482.59;7428609;19;20369;-94
2023/10/07 21:21:16;;;;;;;9.10;6.70;;;;;;;9.82;100.00;96431.41;7429920;19;20391;-94
2023/10/07 21:23:49;;;;;;;9.80;6.20;;;;;;;9.30;100.00;96352.44;7428272;19;20403;-94
2023/10/07 21:26:21;;;;;;;8.27;6.50;;;;;;;9.39;100.00;96379.56;7425981;19;20392;-94
2023/10/07 21:28:57;;;;;;;8.73;6.63;;;;;;;9.22;100.00;96355.13;7428760;19;20397;-93
2023/10/07 21:31:30;;;;;;;8.30;5.87;;;;;;;9.48;100.00;96413.81;7426853;19;20372;-93
2023/10/07 21:33:58;;;;;;;9.40;7.10;;;;;;;9.71;100.00;96443.41;7428815;19;20398;-93
2023/10/07 21:36:32;;;;;;;7.70;6.60;;;;;;;9.89;100.00;96468.66;7425974;19;20417;-93
2023/10/07 21:38:59;;;;;;;9.63;6.30;;;;;;;9.89;100.00;96471.31;7428685;19;20380;-94
2023/10/07 21:41:26;;;;;;;8.10;5.73;;;;;;;9.74;100.00;96446.19;7426841;19;20389;-94
2023/10/07 21:43:54;;;;;;;10.00;7.80;;;;;;;9.60;100.00;96423.72;7429491;19;20392;-94
2023/10/07 21:46:24;;;;;;;12.50;6.83;;;;;;;10.55;100.00;96542.16;7430701;19;20398;-94
2023/10/07 21:48:52;;;;;;;8.27;7.10;;;;;;;9.19;100.00;96338.03;7433270;19;20392;-93
2023/10/07 21:51:19;;;;;;;7.47;6.40;;;;;;;10.47;100.00;96529.78;7434710;19;20451;-94
2023/10/07 21:53:47;;;;;;;11.50;7.77;;;;;;;10.08;100.00;96465.59;7433636;19;20734;-94
2023/10/07 23:24:08;;;;;;;8.30;7.50;;;;;;;8.47;100.00;96402.09;7435051;19;20401;-95
2023/10/07 23:26:36;;;;;;;11.30;7.93;;;;;;;8.51;100.00;96400.38;7430876;19;20408;-95
2023/10/07 23:29:06;;;;;;;11.43;6.73;;;;;;;8.24;100.00;96365.31;7434512;19;20399;-96
2023/10/07 23:31:33;;;;;;;7.60;6.90;;;;;;;8.41;100.00;96383.00;7430058;19;20408;-96
2023/10/07 23:34:28;;;;;;;7.50;6.80;;;;;;;8.02;100.00;96388.41;7430130;19;20376;-96
2023/10/07 23:36:55;;;;;;;11.30;7.63;;;;;;;8.21;100.00;96396.78;7432741;19;20429;-96
2023/10/07 23:39:31;;;;;;;9.10;6.93;;;;;;;8.14;100.00;96401.72;7428604;19;20369;-95
2023/10/07 23:42:11;;;;;;;10.83;6.40;;;;;;;8.50;100.00;96443.63;7433628;19;20393;-96
2023/10/07 23:44:41;;;;;;;12.50;9.57;;;;;;;8.22;100.00;96377.25;7430240;19;20380;-95
2023/10/07 23:47:11;;;;;;;10.40;8.50;;;;;;;8.37;100.00;96374.19;7433381;19;20464;-96
2023/10/07 23:49:42;;;;;;;10.07;6.77;;;;;;;7.67;100.00;96289.09;7432438;19;20405;-95
2023/10/07 23:52:12;;;;;;;8.80;7.00;;;;;;;8.16;100.00;96381.91;7430598;19;20408;-95
2023/10/07 23:54:43;;;;;;;9.33;7.40;;;;;;;7.58;100.00;96259.38;7433157;19;20400;-96
2023/10/07 23:57:22;;;;;;;8.50;7.57;;;;;;;8.46;100.00;96367.06;7429076;19;20460;-96
2023/10/07 23:59:50;;;;;;;13.27;7.57;;;;;;;7.83;100.00;96275.47;7428309;19;20376;-94
